createdAt,value
2019-04-30T00:01:48.599Z,35.90
2019-04-30T00:04:25.387Z,35.20
2019-04-30T00:06:55.799Z,36.00
2019-04-30T00:09:26.747Z,33.02
2019-04-30T00:12:01.064Z,35.37
2019-04-30T00:14:32.490Z,35.45
2019-04-30T00:16:59.462Z,34.27
2019-04-30T00:19:28.853Z,35.33
2019-04-30T00:22:00.886Z,33.18
2019-04-30T00:24:31.614Z,32.90
2019-04-30T00:27:02.150Z,33.70
2019-04-30T00:29:31.560Z,34.37
2019-04-30T00:32:04.535Z,34.57
2019-04-30T00:34:35.885Z,34.07
2019-04-30T00:37:07.428Z,34.33
2019-04-30T00:39:35.893Z,34.13
2019-04-30T00:42:05.582Z,34.67
2019-04-30T00:44:36.510Z,33.07
2019-04-30T00:47:09.065Z,34.57
2019-04-30T00:49:38.570Z,34.90
2019-04-30T00:52:09.598Z,36.50
2019-04-30T00:54:40.223Z,36.30
2019-04-30T00:57:11.323Z,34.75
2019-04-30T00:59:44.651Z,33.20
2019-04-30T01:02:19.967Z,33.47
2019-04-30T01:04:48.756Z,33.20
2019-04-30T01:07:18.714Z,34.23
2019-04-30T01:09:49.858Z,34.63
2019-04-30T01:12:27.658Z,33.57
2019-04-30T01:14:51.139Z,31.70
2019-04-30T01:17:20.726Z,32.30
2019-04-30T01:19:54.280Z,34.07
2019-04-30T01:22:28.171Z,33.83
2019-04-30T01:24:56.542Z,35.10
2019-04-30T01:27:26.209Z,31.37
2019-04-30T01:29:58.491Z,32.80
2019-04-30T01:32:29.013Z,32.83
2019-04-30T01:34:59.016Z,33.20
2019-04-30T01:37:33.046Z,34.30
2019-04-30T01:40:10.580Z,33.50
2019-04-30T01:42:36.065Z,32.40
2019-04-30T01:45:08.754Z,33.17
2019-04-30T01:47:39.706Z,31.87
2019-04-30T01:50:09.339Z,33.27
2019-04-30T01:52:54.821Z,36.50
2019-04-30T01:55:34.487Z,33.50
2019-04-30T01:58:05.502Z,33.40
2019-04-30T02:00:37.112Z,34.73
2019-04-30T02:03:11.208Z,35.77
2019-04-30T02:05:40.782Z,34.50
2019-04-30T02:08:13.419Z,36.10
2019-04-30T02:10:43.460Z,35.20
2019-04-30T02:13:13.118Z,34.70
2019-04-30T02:15:42.803Z,34.80
2019-04-30T02:18:13.205Z,36.47
2019-04-30T02:20:45.350Z,36.50
2019-04-30T02:23:15.030Z,33.43
2019-04-30T02:25:44.840Z,34.67
2019-04-30T02:28:15.977Z,37.90
2019-04-30T02:30:45.368Z,34.20
2019-04-30T02:33:15.042Z,35.10
2019-04-30T02:35:52.250Z,38.00
2019-04-30T02:38:26.483Z,36.38
2019-04-30T02:40:59.604Z,34.83
2019-04-30T02:43:30.230Z,34.93
2019-04-30T02:46:00.173Z,36.27
2019-04-30T02:48:29.909Z,36.23
2019-04-30T02:51:01.170Z,34.77
2019-04-30T02:53:52.033Z,33.13
2019-04-30T02:56:26.536Z,33.88
2019-04-30T02:58:56.154Z,35.67
2019-04-30T03:01:26.185Z,36.55
2019-04-30T03:03:55.866Z,35.15
2019-04-30T03:06:25.225Z,37.93
2019-04-30T03:08:55.648Z,38.07
2019-04-30T03:11:25.164Z,36.20
2019-04-30T03:13:54.529Z,37.37
2019-04-30T03:16:30.322Z,35.20
2019-04-30T03:19:01.647Z,34.37
2019-04-30T03:21:49.990Z,36.47
2019-04-30T03:24:20.742Z,36.63
2019-04-30T03:26:51.761Z,37.30
2019-04-30T03:29:25.510Z,36.20
2019-04-30T03:31:55.030Z,37.67
2019-04-30T03:34:26.500Z,36.63
2019-04-30T03:37:01.664Z,36.70
2019-04-30T03:39:29.682Z,35.80
2019-04-30T03:41:59.828Z,36.53
2019-04-30T03:44:32.337Z,39.23
2019-04-30T03:47:01.423Z,35.47
2019-04-30T03:49:32.667Z,35.93
2019-04-30T03:52:02.159Z,35.87
2019-04-30T03:54:31.814Z,37.73
2019-04-30T03:57:02.602Z,37.70
2019-04-30T03:59:31.973Z,41.20
2019-04-30T04:02:20.868Z,35.47
2019-04-30T04:05:02.421Z,38.17
2019-04-30T04:07:34.909Z,36.03
2019-04-30T04:10:10.265Z,38.83
2019-04-30T04:12:40.142Z,39.93
2019-04-30T04:15:10.706Z,36.67
2019-04-30T04:17:43.424Z,38.30
2019-04-30T04:20:13.377Z,37.40
2019-04-30T04:22:43.875Z,39.35
2019-04-30T04:25:13.537Z,36.67
2019-04-30T04:27:44.158Z,39.87
2019-04-30T04:30:15.514Z,37.40
2019-04-30T04:32:50.093Z,39.70
2019-04-30T04:35:19.974Z,34.10
2019-04-30T04:37:51.868Z,36.50
2019-04-30T04:40:23.792Z,34.03
2019-04-30T04:42:53.188Z,38.13
2019-04-30T04:45:22.576Z,40.87
2019-04-30T04:47:52.472Z,39.53
2019-04-30T04:50:24.510Z,37.83
2019-04-30T04:52:55.015Z,37.03
2019-04-30T04:55:24.404Z,42.03
2019-04-30T04:57:54.108Z,40.28
2019-04-30T05:00:23.504Z,42.75
2019-04-30T05:02:55.362Z,43.23
2019-04-30T05:05:25.004Z,43.65
2019-04-30T05:07:54.516Z,41.37
2019-04-30T05:10:26.099Z,45.05
2019-04-30T05:12:59.286Z,44.30
2019-04-30T05:15:29.522Z,42.80
2019-04-30T05:17:59.340Z,43.97
2019-04-30T05:20:29.545Z,45.70
2019-04-30T05:23:00.300Z,46.30
2019-04-30T05:25:29.723Z,45.80
2019-04-30T05:27:59.197Z,45.90
2019-04-30T05:30:30.278Z,48.30
2019-04-30T05:32:59.696Z,42.23
2019-04-30T05:35:31.002Z,45.37
2019-04-30T05:38:00.580Z,43.97
2019-04-30T05:40:30.914Z,47.90
2019-04-30T05:43:00.490Z,47.37
2019-04-30T05:45:30.365Z,47.03
2019-04-30T05:47:59.776Z,44.17
2019-04-30T05:50:29.750Z,42.23
2019-04-30T05:53:03.448Z,44.70
2019-04-30T05:55:32.831Z,45.70
2019-04-30T05:58:04.440Z,46.05
2019-04-30T06:00:33.828Z,45.20
2019-04-30T06:03:03.347Z,43.60
2019-04-30T06:05:33.827Z,41.33
2019-04-30T06:08:06.040Z,41.80
2019-04-30T06:10:42.150Z,43.85
2019-04-30T06:13:16.113Z,38.60
2019-04-30T06:15:53.031Z,40.37
2019-04-30T06:18:22.703Z,38.75
2019-04-30T06:20:52.324Z,40.00
2019-04-30T06:23:21.694Z,37.95
2019-04-30T06:25:59.315Z,34.90
2019-04-30T06:28:23.765Z,32.70
2019-04-30T06:30:54.613Z,35.33
2019-04-30T06:33:24.304Z,32.00
2019-04-30T06:35:54.627Z,30.70
2019-04-30T06:38:26.043Z,31.00
2019-04-30T06:40:55.494Z,30.73
2019-04-30T06:43:24.875Z,30.00
2019-04-30T06:45:54.609Z,30.50
2019-04-30T06:48:29.391Z,31.68
2019-04-30T06:50:59.782Z,31.43
2019-04-30T06:53:29.411Z,29.17
2019-04-30T06:55:59.210Z,29.00
2019-04-30T06:58:29.222Z,30.77
2019-04-30T07:00:59.582Z,30.07
2019-04-30T07:03:29.617Z,30.30
2019-04-30T07:06:03.247Z,31.77
2019-04-30T07:08:47.136Z,33.30
2019-04-30T07:11:21.722Z,28.80
2019-04-30T07:13:52.581Z,30.87
2019-04-30T07:16:23.642Z,29.57
2019-04-30T07:18:53.331Z,30.40
2019-04-30T07:21:26.203Z,31.47
2019-04-30T07:23:55.820Z,31.53
2019-04-30T07:26:25.760Z,33.25
2019-04-30T07:28:55.676Z,33.60
2019-04-30T07:31:25.464Z,32.67
2019-04-30T07:33:54.838Z,31.97
2019-04-30T07:36:42.427Z,30.45
2019-04-30T07:38:57.032Z,30.70
2019-04-30T07:44:01.075Z,31.33
2019-04-30T07:46:35.114Z,30.87
2019-04-30T07:49:04.730Z,30.23
2019-04-30T07:51:40.252Z,29.95
2019-04-30T07:54:09.292Z,28.70
2019-04-30T07:56:41.732Z,29.90
2019-04-30T07:59:12.004Z,26.87
2019-04-30T08:02:00.568Z,27.57
2019-04-30T08:04:19.602Z,30.67
2019-04-30T08:06:51.504Z,29.83
2019-04-30T08:09:22.704Z,27.87
2019-04-30T08:09:38.317Z,31.20
2019-04-30T08:11:52.090Z,28.13
2019-04-30T08:14:24.487Z,27.80
2019-04-30T08:16:52.912Z,26.87
2019-04-30T08:19:22.858Z,28.90
2019-04-30T08:21:55.084Z,29.10
2019-04-30T08:24:29.209Z,28.27
2019-04-30T08:27:01.306Z,27.47
2019-04-30T08:29:33.951Z,27.73
2019-04-30T08:32:03.618Z,26.75
2019-04-30T08:34:35.345Z,27.50
2019-04-30T08:37:16.684Z,28.37
2019-04-30T08:39:36.195Z,27.00
2019-04-30T08:42:05.959Z,26.77
2019-04-30T08:44:36.880Z,27.55
2019-04-30T08:47:06.241Z,27.77
2019-04-30T08:49:36.250Z,27.23
2019-04-30T08:52:06.186Z,25.30
2019-04-30T08:54:35.917Z,26.20
2019-04-30T08:57:06.186Z,25.55
2019-04-30T08:59:39.491Z,27.80
2019-04-30T09:02:15.944Z,27.37
2019-04-30T09:04:40.873Z,25.83
2019-04-30T09:07:12.374Z,24.50
2019-04-30T09:09:44.698Z,25.80
2019-04-30T09:12:16.107Z,23.83
2019-04-30T09:14:49.021Z,25.40
2019-04-30T09:17:21.925Z,25.25
2019-04-30T09:19:51.653Z,26.10
2019-04-30T09:22:22.325Z,25.83
2019-04-30T09:24:51.910Z,24.90
2019-04-30T09:27:22.747Z,22.63
2019-04-30T09:29:52.165Z,25.60
2019-04-30T09:32:22.168Z,26.30
2019-04-30T09:34:53.494Z,23.63
2019-04-30T09:37:24.929Z,24.40
2019-04-30T09:39:54.346Z,25.70
2019-04-30T09:42:24.050Z,23.65
2019-04-30T09:44:57.253Z,22.77
2019-04-30T09:47:29.550Z,25.70
2019-04-30T09:50:00.015Z,24.83
2019-04-30T09:52:31.704Z,24.13
2019-04-30T09:55:02.206Z,26.07
2019-04-30T09:57:31.953Z,24.93
2019-04-30T10:00:01.643Z,23.70
2019-04-30T10:02:32.851Z,24.67
2019-04-30T10:05:02.944Z,25.40
2019-04-30T10:07:34.099Z,25.62
2019-04-30T10:10:08.865Z,25.20
2019-04-30T10:12:39.152Z,23.70
2019-04-30T10:15:13.712Z,24.13
2019-04-30T10:17:50.930Z,23.60
2019-04-30T10:20:26.075Z,26.02
2019-04-30T10:22:57.002Z,25.97
2019-04-30T10:25:28.277Z,25.00
2019-04-30T10:27:59.829Z,24.93
2019-04-30T10:30:33.023Z,24.70
2019-04-30T10:33:02.415Z,24.37
2019-04-30T10:35:32.961Z,23.67
2019-04-30T10:38:03.468Z,24.00
2019-04-30T10:40:33.058Z,26.00
2019-04-30T10:43:02.503Z,25.50
2019-04-30T10:45:32.061Z,21.73
2019-04-30T10:48:02.989Z,23.53
2019-04-30T10:50:32.354Z,25.00
2019-04-30T10:53:02.612Z,23.32
2019-04-30T10:55:33.625Z,22.10
2019-04-30T10:58:03.149Z,20.30
2019-04-30T11:00:38.954Z,23.07
2019-04-30T11:03:19.598Z,23.70
2019-04-30T11:05:41.261Z,18.80
2019-04-30T11:08:13.062Z,21.87
2019-04-30T11:10:44.133Z,22.90
2019-04-30T11:13:14.204Z,21.73
2019-04-30T11:15:44.541Z,24.40
2019-04-30T11:18:14.563Z,22.37
2019-04-30T11:20:44.976Z,20.57
2019-04-30T11:23:15.239Z,20.70
2019-04-30T11:25:45.400Z,19.77
2019-04-30T11:28:15.893Z,19.37
2019-04-30T11:30:46.254Z,17.40
2019-04-30T11:33:17.153Z,19.57
2019-04-30T11:35:47.016Z,18.95
2019-04-30T11:38:20.391Z,18.17
2019-04-30T11:40:49.026Z,18.12
2019-04-30T11:43:20.185Z,18.90
2019-04-30T11:45:55.717Z,16.93
2019-04-30T11:48:26.809Z,16.65
2019-04-30T11:50:59.523Z,17.60
2019-04-30T11:53:30.684Z,17.37
2019-04-30T11:56:00.472Z,15.23
2019-04-30T11:58:30.589Z,14.28
2019-04-30T12:01:02.618Z,14.63
2019-04-30T12:03:33.912Z,15.67
2019-04-30T12:06:04.821Z,13.97
2019-04-30T12:08:52.574Z,14.67
2019-04-30T12:11:42.270Z,15.28
2019-04-30T12:14:12.557Z,15.50
2019-04-30T12:16:43.198Z,13.68
2019-04-30T12:19:12.655Z,14.97
2019-04-30T12:21:42.173Z,14.67
2019-04-30T12:24:12.534Z,16.20
2019-04-30T12:51:45.838Z,11.68
2019-04-30T12:54:14.230Z,13.70
2019-04-30T12:56:51.272Z,13.90
2019-04-30T12:59:21.303Z,13.48
2019-04-30T13:01:50.662Z,13.90
2019-04-30T13:04:20.591Z,13.03
2019-04-30T13:06:51.054Z,12.45
2019-04-30T13:09:21.446Z,10.93
2019-04-30T13:11:52.078Z,11.40
2019-04-30T13:14:22.885Z,11.50
2019-04-30T13:16:52.731Z,12.53
2019-04-30T13:19:22.986Z,12.85
2019-04-30T13:21:52.354Z,12.33
2019-04-30T13:24:22.472Z,13.30
2019-04-30T13:26:51.864Z,12.27
2019-04-30T13:29:25.860Z,13.20
2019-04-30T13:31:58.246Z,12.30
2019-04-30T13:34:45.647Z,13.17
2019-04-30T13:37:15.283Z,13.93
2019-04-30T13:39:55.261Z,13.00
2019-04-30T13:42:35.337Z,14.85
2019-04-30T13:45:07.076Z,14.00
2019-04-30T13:47:36.437Z,13.37
2019-04-30T13:50:06.511Z,15.00
2019-04-30T13:52:35.875Z,14.60
2019-04-30T13:55:10.721Z,14.97
2019-04-30T13:57:38.722Z,14.60
2019-04-30T14:00:11.964Z,12.93
2019-04-30T14:02:44.794Z,14.40
2019-04-30T14:05:16.380Z,14.20
2019-04-30T14:07:56.421Z,14.20
2019-04-30T14:10:25.802Z,14.83
2019-04-30T14:12:57.000Z,15.70
2019-04-30T14:15:26.752Z,15.57
2019-04-30T14:17:56.629Z,16.60
2019-04-30T14:20:26.668Z,14.75
2019-04-30T14:22:57.546Z,16.73
2019-04-30T14:25:26.992Z,17.93
2019-04-30T14:27:56.459Z,16.50
2019-04-30T14:30:26.373Z,16.87
2019-04-30T14:32:55.738Z,17.17
2019-04-30T14:35:25.122Z,16.55
2019-04-30T14:37:54.514Z,16.90
2019-04-30T14:40:24.782Z,15.13
2019-04-30T14:42:59.751Z,17.60
2019-04-30T14:45:40.628Z,16.07
2019-04-30T14:48:12.917Z,17.80
2019-04-30T14:50:42.831Z,17.37
2019-04-30T14:53:14.480Z,16.27
2019-04-30T14:55:49.549Z,16.73
2019-04-30T14:58:29.546Z,16.20
2019-04-30T15:01:06.168Z,17.20
2019-04-30T15:03:36.598Z,15.60
2019-04-30T15:06:05.993Z,15.60
2019-04-30T15:08:36.598Z,16.83
2019-04-30T15:11:05.984Z,16.03
2019-04-30T15:13:35.587Z,15.60
2019-04-30T15:16:35.358Z,15.73
2019-04-30T15:19:04.864Z,15.00
2019-04-30T15:21:34.524Z,15.00
2019-04-30T15:24:21.610Z,15.33
2019-04-30T15:26:57.573Z,17.00
2019-04-30T15:29:23.129Z,16.30
2019-04-30T15:31:52.758Z,16.30
2019-04-30T15:34:22.731Z,17.50
2019-04-30T15:36:52.114Z,17.53
2019-04-30T15:39:26.654Z,17.48
2019-04-30T15:41:56.019Z,18.23
2019-04-30T15:44:25.931Z,17.25
2019-04-30T15:46:55.782Z,18.70
2019-04-30T15:49:25.429Z,19.87
2019-04-30T15:51:54.827Z,17.90
2019-04-30T15:54:24.511Z,17.87
2019-04-30T15:56:53.911Z,17.40
2019-04-30T15:59:24.979Z,18.60
2019-04-30T16:01:56.435Z,18.40
2019-04-30T16:04:44.556Z,19.87
2019-04-30T16:07:14.087Z,18.17
2019-04-30T16:09:51.633Z,19.43
2019-04-30T16:12:22.667Z,20.37
2019-04-30T16:14:52.045Z,20.50
2019-04-30T16:17:23.467Z,20.35
2019-04-30T16:19:52.867Z,17.90
2019-04-30T16:22:22.337Z,19.33
2019-04-30T16:24:54.443Z,19.20
2019-04-30T16:27:22.863Z,20.10
2019-04-30T16:29:52.257Z,19.20
2019-04-30T16:32:24.639Z,18.20
2019-04-30T16:34:54.019Z,20.50
2019-04-30T16:37:23.687Z,19.52
2019-04-30T16:39:53.088Z,20.67
2019-04-30T16:42:22.712Z,20.80
2019-04-30T16:44:52.097Z,21.50
2019-04-30T16:47:21.775Z,20.53
2019-04-30T16:49:51.183Z,21.03
2019-04-30T16:52:21.202Z,21.35
2019-04-30T16:54:50.804Z,20.83
2019-04-30T16:57:20.514Z,21.03
2019-04-30T16:59:51.032Z,20.23
2019-04-30T17:02:22.698Z,20.90
2019-04-30T17:04:56.126Z,24.07
2019-04-30T17:07:30.212Z,20.60
2019-04-30T17:10:09.021Z,21.07
2019-04-30T17:12:43.293Z,20.48
2019-04-30T17:15:14.912Z,21.60
2019-04-30T17:17:44.296Z,19.27
2019-04-30T17:20:14.612Z,20.47
2019-04-30T17:22:43.987Z,20.33
2019-04-30T17:25:13.745Z,19.43
2019-04-30T17:27:43.386Z,19.63
2019-04-30T17:30:13.649Z,16.87
2019-04-30T17:32:43.021Z,21.27
2019-04-30T17:35:13.390Z,20.60
2019-04-30T17:37:43.001Z,20.10
2019-04-30T17:40:13.323Z,20.35
2019-04-30T17:42:42.952Z,20.43
2019-04-30T17:45:13.453Z,22.75
2019-04-30T17:47:43.297Z,20.47
2019-04-30T17:50:13.770Z,22.90
2019-04-30T17:52:43.158Z,24.33
2019-04-30T17:55:13.616Z,25.92
2019-04-30T17:57:43.006Z,25.27
2019-04-30T18:00:19.998Z,22.98
2019-04-30T18:02:46.490Z,24.50
2019-04-30T18:05:16.275Z,22.87
2019-04-30T18:07:45.916Z,23.83
2019-04-30T18:10:17.037Z,24.10
2019-04-30T18:12:46.436Z,23.20
2019-04-30T18:15:17.933Z,24.17
2019-04-30T18:17:49.034Z,24.07
2019-04-30T18:20:36.712Z,23.70
2019-04-30T18:23:24.314Z,26.57
2019-04-30T18:26:01.424Z,26.60
2019-04-30T18:28:31.098Z,23.00
2019-04-30T18:31:00.485Z,25.07
2019-04-30T18:33:30.066Z,24.90
2019-04-30T18:35:59.731Z,25.20
2019-04-30T18:38:31.131Z,26.67
2019-04-30T18:41:00.596Z,25.07
2019-04-30T18:43:30.160Z,24.47
2019-04-30T18:46:00.683Z,24.20
2019-04-30T18:48:30.384Z,24.47
2019-04-30T18:51:00.027Z,25.93
2019-04-30T18:53:31.346Z,24.33
2019-04-30T18:56:01.293Z,23.93
2019-04-30T18:58:39.210Z,23.97
2019-04-30T19:01:02.305Z,21.57
2019-04-30T19:03:32.020Z,23.37
2019-04-30T19:06:03.060Z,24.03
2019-04-30T19:08:50.023Z,23.43
2019-04-30T19:11:30.716Z,23.97
2019-04-30T19:14:09.422Z,21.90
2019-04-30T19:16:46.613Z,23.83
2019-04-30T19:19:19.554Z,22.80
2019-04-30T19:21:49.223Z,22.20
2019-04-30T19:24:19.715Z,23.42
2019-04-30T19:26:50.362Z,22.80
2019-04-30T19:29:20.032Z,23.25
2019-04-30T19:31:49.533Z,22.50
2019-04-30T19:34:19.169Z,23.27
2019-04-30T19:36:49.225Z,22.63
2019-04-30T19:39:20.093Z,22.52
2019-04-30T19:41:50.539Z,22.90
2019-04-30T19:44:21.092Z,21.80
2019-04-30T19:46:50.876Z,22.85
2019-04-30T19:49:20.581Z,24.17
2019-04-30T19:51:53.137Z,24.30
2019-04-30T19:54:22.527Z,22.93
2019-04-30T19:56:52.071Z,25.30
2019-04-30T19:59:21.431Z,25.53
2019-04-30T20:01:50.994Z,25.73
2019-04-30T20:04:32.796Z,24.83
2019-04-30T20:06:52.169Z,25.23
2019-04-30T20:09:21.908Z,25.10
2019-04-30T20:11:51.403Z,25.40
2019-04-30T20:14:21.055Z,24.73
2019-04-30T20:16:50.428Z,25.43
2019-04-30T20:19:20.145Z,24.97
2019-04-30T20:21:53.668Z,26.43
2019-04-30T20:24:21.256Z,26.42
2019-04-30T20:26:58.277Z,27.05
2019-04-30T20:29:22.318Z,27.85
2019-04-30T20:31:52.051Z,25.53
2019-04-30T20:34:21.437Z,25.87
2019-04-30T20:36:51.116Z,25.85
2019-04-30T20:39:23.445Z,25.80
2019-04-30T20:41:53.382Z,26.73
2019-04-30T20:44:23.078Z,27.45
2019-04-30T20:46:52.461Z,27.37
2019-04-30T20:49:21.852Z,27.65
2019-04-30T20:51:55.246Z,27.83
2019-04-30T20:54:22.656Z,29.10
2019-04-30T20:56:52.143Z,26.37
2019-04-30T20:59:21.538Z,29.43
2019-04-30T21:01:51.101Z,28.90
2019-04-30T21:04:21.049Z,30.50
2019-04-30T21:06:50.775Z,31.90
2019-04-30T21:09:20.507Z,30.77
2019-04-30T21:11:50.211Z,32.10
2019-04-30T21:14:19.610Z,31.67
2019-04-30T21:16:49.163Z,31.17
2019-04-30T21:19:18.839Z,31.93
2019-04-30T21:21:49.714Z,32.03
2019-04-30T21:24:19.484Z,33.27
2019-04-30T21:26:49.450Z,32.20
2019-04-30T21:29:19.813Z,35.30
2019-04-30T21:32:03.195Z,34.33
2019-04-30T21:34:34.225Z,34.63
2019-04-30T21:37:03.603Z,36.20
2019-04-30T21:39:33.588Z,36.50
2019-04-30T21:42:03.275Z,35.67
2019-04-30T21:44:32.675Z,34.70
2019-04-30T21:47:03.245Z,35.30
2019-04-30T21:49:32.626Z,34.50
2019-04-30T21:52:02.307Z,35.17
2019-04-30T21:54:31.706Z,34.47
2019-04-30T21:57:01.387Z,35.30
2019-04-30T21:59:30.750Z,33.47
2019-04-30T22:02:00.330Z,34.03
2019-04-30T22:04:29.714Z,34.07
2019-04-30T22:06:59.598Z,34.80
2019-04-30T22:09:29.639Z,33.70
2019-04-30T22:11:59.351Z,32.40
2019-04-30T22:14:29.025Z,34.00
2019-04-30T22:16:59.381Z,33.97
2019-04-30T22:19:28.958Z,32.53
2019-04-30T22:21:59.475Z,33.70
2019-04-30T22:24:30.508Z,33.10
2019-04-30T22:27:01.351Z,32.67
2019-04-30T22:29:39.093Z,33.00
2019-04-30T22:32:01.887Z,32.67
2019-04-30T22:34:31.319Z,34.97
2019-04-30T22:37:00.689Z,32.70
2019-04-30T22:39:32.013Z,32.38
2019-04-30T22:42:20.710Z,33.70
2019-04-30T22:44:50.454Z,31.00
2019-04-30T22:47:19.824Z,31.67
2019-04-30T22:49:49.434Z,34.87
2019-04-30T22:52:21.782Z,32.60
2019-04-30T22:54:50.539Z,34.07
2019-04-30T22:57:19.903Z,33.93
2019-04-30T22:59:50.254Z,33.00
2019-04-30T23:02:30.084Z,32.70
2019-04-30T23:05:01.058Z,34.57
2019-04-30T23:07:31.499Z,36.97
2019-04-30T23:10:00.896Z,34.33
2019-04-30T23:12:30.518Z,34.87
2019-04-30T23:14:59.912Z,38.67
2019-04-30T23:17:29.581Z,35.20
2019-04-30T23:19:58.984Z,35.30
2019-04-30T23:22:28.673Z,36.37
2019-04-30T23:24:58.059Z,36.10
2019-04-30T23:27:27.755Z,33.87
2019-04-30T23:30:03.448Z,35.00
2019-04-30T23:32:28.524Z,35.20
2019-04-30T23:34:57.904Z,34.77
2019-04-30T23:37:28.102Z,34.92
2019-04-30T23:40:01.212Z,34.27
2019-04-30T23:42:30.588Z,34.70
2019-04-30T23:44:59.989Z,33.80
2019-04-30T23:47:29.481Z,34.70
2019-04-30T23:49:58.884Z,33.93
2019-04-30T23:52:28.262Z,35.60
2019-04-30T23:54:58.047Z,36.70
2019-04-30T23:57:27.729Z,35.13
2019-04-30T23:59:57.439Z,35.15
